Time;durP1;ratioP1;P1;durP2;ratioP2;P2;SDS_P1;SDS_P2;PMS_P1;PMS_P2;Temp;Humidity;BMP_temperature;BMP_pressure;BME280_temperature;BME280_humidity;BME280_pressure;Samples;Min_cycle;Max_cycle;Signal;HPM_P1;HPM_P2
2022/11/19 00:01:26;;;;;;;1.40;1.27;;;13.90;63.40;;;;;;5028705;28;20450;-59
2022/11/19 00:03:52;;;;;;;3.77;2.00;;;14.00;63.60;;;;;;5025069;28;20828;-58
2022/11/19 00:06:20;;;;;;;2.87;1.60;;;13.90;63.50;;;;;;5025574;28;20436;-59
2022/11/19 00:08:52;;;;;;;2.77;1.83;;;13.90;63.60;;;;;;5025728;28;20551;-59
2022/11/19 00:14:13;;;;;;;1.60;1.50;;;14.00;63.50;;;;;;5023245;28;20478;-59
2022/11/19 00:16:39;;;;;;;2.77;1.57;;;13.90;63.70;;;;;;5021314;28;20568;-59
2022/11/19 00:19:09;;;;;;;2.10;1.70;;;13.90;63.90;;;;;;5029285;28;20444;-59
2022/11/19 00:21:43;;;;;;;4.90;1.47;;;13.90;63.80;;;;;;5024849;28;20491;-59
2022/11/19 00:24:12;;;;;;;2.10;1.90;;;14.00;63.90;;;;;;5023693;28;20459;-60
2022/11/19 00:26:41;;;;;;;3.23;2.10;;;13.90;63.50;;;;;;5026562;28;20560;-59
2022/11/19 00:29:06;;;;;;;3.07;2.47;;;14.00;63.40;;;;;;5026655;28;20468;-59
2022/11/19 00:31:36;;;;;;;2.73;2.30;;;13.90;63.30;;;;;;5029058;28;20947;-60
2022/11/19 00:34:05;;;;;;;2.90;2.60;;;13.90;63.70;;;;;;5026948;28;20218;-59
2022/11/19 00:36:31;;;;;;;5.13;2.57;;;13.90;63.80;;;;;;5029684;28;20901;-59
2022/11/19 00:38:58;;;;;;;2.90;2.70;;;13.80;63.90;;;;;;5029972;28;20479;-59
2022/11/19 00:41:24;;;;;;;3.50;3.20;;;13.80;64.10;;;;;;5028593;28;20326;-60
2022/11/19 00:43:56;;;;;;;2.60;2.27;;;13.80;64.40;;;;;;5031164;28;20560;-59
2022/11/19 00:46:27;;;;;;;2.50;2.30;;;13.70;64.10;;;;;;5031503;28;20611;-59
2022/11/19 00:48:55;;;;;;;2.43;2.23;;;13.70;64.30;;;;;;5028856;28;20808;-59
2022/11/19 00:51:22;;;;;;;4.07;2.40;;;13.40;64.60;;;;;;5033361;28;20472;-59
2022/11/19 00:53:48;;;;;;;3.00;2.37;;;13.30;65.70;;;;;;5027010;28;21248;-60
2022/11/19 00:56:16;;;;;;;1.73;1.63;;;13.40;65.90;;;;;;5030739;28;20435;-59
2022/11/19 00:58:42;;;;;;;2.60;2.10;;;13.40;65.60;;;;;;5030150;28;20198;-59
2022/11/19 01:01:09;;;;;;;1.70;1.60;;;13.50;65.40;;;;;;5029067;28;20439;-59
2022/11/19 01:03:37;;;;;;;2.40;1.80;;;13.60;65.30;;;;;;5029322;28;20526;-59
2022/11/19 01:06:03;;;;;;;2.50;1.70;;;13.70;65.20;;;;;;5030727;28;21021;-59
2022/11/19 01:08:29;;;;;;;2.03;1.83;;;13.70;65.00;;;;;;5033325;28;20571;-59
2022/11/19 01:10:55;;;;;;;1.83;1.73;;;13.70;64.90;;;;;;5029417;28;20449;-60
2022/11/19 01:13:36;;;;;;;1.53;1.43;;;13.70;65.00;;;;;;5028766;28;20443;-59
2022/11/19 01:16:13;;;;;;;2.23;1.90;;;13.70;64.90;;;;;;5042398;28;20477;-59
2022/11/19 01:18:40;;;;;;;1.90;1.70;;;13.80;65.00;;;;;;5031009;28;20855;-59
2022/11/19 01:21:07;;;;;;;2.40;2.20;;;13.80;65.00;;;;;;5031973;28;20482;-59
2022/11/19 01:23:33;;;;;;;2.77;2.50;;;13.80;65.00;;;;;;5025687;28;20436;-59
2022/11/19 01:25:59;;;;;;;2.40;2.20;;;13.80;65.00;;;;;;5030311;28;20466;-59
2022/11/19 01:28:25;;;;;;;2.03;1.93;;;13.80;65.00;;;;;;5032310;28;20931;-59
2022/11/19 01:30:52;;;;;;;3.20;1.50;;;13.80;65.00;;;;;;5030770;28;20518;-59
2022/11/19 01:33:18;;;;;;;2.27;1.80;;;13.80;64.80;;;;;;5029642;28;20202;-59
2022/11/19 01:35:52;;;;;;;4.47;1.97;;;13.70;64.50;;;;;;5029220;28;20501;-59
2022/11/19 01:38:18;;;;;;;2.20;1.80;;;13.70;64.60;;;;;;5029594;28;20502;-59
2022/11/19 01:40:44;;;;;;;2.10;1.70;;;13.80;64.70;;;;;;5030880;28;20466;-59
2022/11/19 01:43:11;;;;;;;3.30;1.90;;;13.70;64.60;;;;;;5029439;28;20217;-59
2022/11/19 01:45:43;;;;;;;2.50;1.50;;;13.80;64.60;;;;;;5029594;28;20197;-59
2022/11/19 01:48:14;;;;;;;2.70;1.67;;;13.80;64.60;;;;;;5031174;28;20500;-59
2022/11/19 01:50:59;;;;;;;4.53;1.53;;;13.80;64.70;;;;;;5024535;28;20436;-59
2022/11/19 01:53:28;;;;;;;2.00;1.33;;;13.80;64.50;;;;;;5029601;28;20452;-59
2022/11/19 01:55:56;;;;;;;2.00;1.30;;;13.80;64.40;;;;;;5030550;28;20436;-59
2022/11/19 01:58:24;;;;;;;1.30;1.20;;;13.80;64.30;;;;;;5029320;28;20496;-59
2022/11/19 02:00:49;;;;;;;3.20;2.00;;;13.90;64.50;;;;;;5032706;28;20440;-59
2022/11/19 02:03:17;;;;;;;4.50;2.10;;;13.80;64.40;;;;;;5024553;28;21210;-59
2022/11/19 02:05:44;;;;;;;1.47;1.37;;;13.90;64.60;;;;;;5026750;28;20739;-59
2022/11/19 02:08:40;;;;;;;1.70;1.60;;;13.80;64.60;;;;;;5027662;28;20442;-59
2022/11/19 02:11:21;;;;;;;3.47;1.90;;;13.80;64.70;;;;;;5022559;28;20429;-59
2022/11/19 02:14:15;;;;;;;2.60;1.93;;;13.90;64.70;;;;;;5025366;28;20447;-59
2022/11/19 02:17:27;;;;;;;2.40;1.70;;;13.80;64.60;;;;;;5024544;28;20476;-59
2022/11/19 02:20:23;;;;;;;1.60;1.33;;;13.90;64.80;;;;;;4960448;28;20455;-59
2022/11/19 02:22:51;;;;;;;1.73;1.60;;;13.90;64.70;;;;;;5021076;28;21004;-59
2022/11/19 02:25:46;;;;;;;1.60;1.40;;;13.90;64.70;;;;;;5025915;28;20531;-59
2022/11/19 02:28:34;;;;;;;2.10;1.70;;;13.90;64.70;;;;;;5020421;28;21003;-59
2022/11/19 02:31:14;;;;;;;1.47;1.37;;;13.90;64.50;;;;;;5022236;28;20981;-59
2022/11/19 02:34:00;;;;;;;1.40;1.30;;;13.80;63.60;;;;;;5028873;28;20451;-59
2022/11/19 02:36:50;;;;;;;1.30;1.00;;;13.80;63.90;;;;;;4992718;28;20497;-61
2022/11/19 02:39:29;;;;;;;1.63;1.00;;;13.80;63.40;;;;;;5026551;28;20445;-59
2022/11/19 02:42:13;;;;;;;1.63;1.00;;;13.80;63.20;;;;;;5021139;28;20502;-59
2022/11/19 02:44:59;;;;;;;2.17;1.10;;;13.80;63.70;;;;;;5029388;28;20487;-59
2022/11/19 02:47:37;;;;;;;0.90;0.80;;;13.90;62.80;;;;;;5023505;28;21170;-59
2022/11/19 02:50:24;;;;;;;0.80;0.80;;;13.90;62.60;;;;;;5028191;28;20448;-59
2022/11/19 02:52:50;;;;;;;1.70;1.20;;;13.80;62.50;;;;;;5029221;28;20935;-59
2022/11/19 02:55:18;;;;;;;1.97;0.93;;;13.80;62.20;;;;;;5027928;28;20576;-59
2022/11/19 02:58:05;;;;;;;1.47;1.10;;;13.80;62.20;;;;;;5028772;28;20490;-59
2022/11/19 03:06:19;;;;;;;2.27;1.23;;;13.90;62.30;;;;;;5029474;28;20574;-59
2022/11/19 03:08:45;;;;;;;4.33;1.10;;;13.90;62.50;;;;;;5031096;28;20421;-59
2022/11/19 03:11:27;;;;;;;1.97;1.10;;;13.90;62.40;;;;;;5027839;28;20445;-59
2022/11/19 03:17:20;;;;;;;0.97;0.90;;;13.90;62.60;;;;;;5028971;28;20522;-59
2022/11/19 03:19:51;;;;;;;2.83;1.37;;;13.90;62.90;;;;;;5028254;28;20958;-58
2022/11/19 03:22:19;;;;;;;1.83;1.10;;;13.90;63.20;;;;;;5029379;28;20491;-58
2022/11/19 03:24:51;;;;;;;1.77;1.27;;;13.80;63.20;;;;;;5028595;28;20511;-58
2022/11/19 03:27:48;;;;;;;2.30;1.30;;;13.90;63.20;;;;;;5031545;28;20796;-58
2022/11/19 03:30:16;;;;;;;2.23;1.10;;;13.90;63.10;;;;;;5029429;28;20452;-58
2022/11/19 03:32:53;;;;;;;1.60;1.00;;;13.90;62.90;;;;;;5029620;28;20475;-58
2022/11/19 03:35:28;;;;;;;1.50;1.00;;;13.90;62.70;;;;;;5028918;28;20496;-59
2022/11/19 03:38:01;;;;;;;4.80;1.53;;;13.90;62.40;;;;;;5045327;28;20493;-58
2022/11/19 03:40:29;;;;;;;1.20;1.10;;;13.90;62.20;;;;;;5042106;28;20507;-58
2022/11/19 03:42:57;;;;;;;1.50;1.10;;;13.90;62.00;;;;;;5028172;28;20522;-58
2022/11/19 03:45:31;;;;;;;1.17;1.07;;;13.90;61.90;;;;;;5028540;28;20454;-58
2022/11/19 03:48:01;;;;;;;1.80;1.20;;;14.00;61.70;;;;;;5029696;28;20440;-59
2022/11/19 03:50:52;;;;;;;2.00;1.13;;;13.90;61.60;;;;;;5029159;28;20468;-58
2022/11/19 03:53:19;;;;;;;2.20;1.00;;;13.90;61.70;;;;;;5026709;28;20943;-58
2022/11/19 03:55:57;;;;;;;0.97;0.90;;;13.90;61.80;;;;;;5027516;28;20436;-59
2022/11/19 03:58:24;;;;;;;1.30;1.17;;;13.90;61.80;;;;;;5029205;28;20487;-59
2022/11/19 04:00:50;;;;;;;1.97;1.13;;;13.90;61.80;;;;;;5029451;28;20456;-59
2022/11/19 04:03:15;;;;;;;1.77;1.30;;;13.90;61.90;;;;;;5029751;28;21046;-58
2022/11/19 04:05:41;;;;;;;1.50;1.40;;;13.90;61.70;;;;;;5029447;28;20224;-59
2022/11/19 04:08:07;;;;;;;2.03;1.40;;;13.90;61.90;;;;;;5029383;28;20203;-58
2022/11/19 04:10:32;;;;;;;1.70;1.57;;;13.90;62.10;;;;;;5028708;28;20210;-59
2022/11/19 04:12:58;;;;;;;1.53;1.27;;;13.90;62.00;;;;;;5029859;28;20216;-58
2022/11/19 04:15:23;;;;;;;1.63;1.53;;;14.00;62.20;;;;;;5033376;28;20956;-59
2022/11/19 04:17:49;;;;;;;1.80;1.60;;;14.00;62.20;;;;;;5035257;28;20231;-58
2022/11/19 04:20:15;;;;;;;2.20;1.13;;;13.90;62.40;;;;;;5033287;28;20611;-58
2022/11/19 04:22:41;;;;;;;1.40;1.30;;;13.90;62.80;;;;;;5031430;28;20248;-59
2022/11/19 04:25:07;;;;;;;1.47;1.30;;;13.90;63.10;;;;;;5031133;28;20196;-59
2022/11/19 04:27:32;;;;;;;2.63;2.00;;;13.90;63.10;;;;;;5034837;28;20804;-58
2022/11/19 04:29:58;;;;;;;1.50;1.40;;;13.90;63.10;;;;;;5033316;28;20518;-58
2022/11/19 04:32:24;;;;;;;1.60;1.50;;;13.90;63.40;;;;;;5034403;28;21019;-59
2022/11/19 04:34:49;;;;;;;1.40;1.30;;;13.80;63.40;;;;;;5033035;28;20200;-58
2022/11/19 04:37:15;;;;;;;3.80;1.47;;;13.60;63.80;;;;;;5045396;28;20281;-58
2022/11/19 04:39:40;;;;;;;1.87;1.50;;;13.70;64.10;;;;;;5041909;28;20200;-58
2022/11/19 04:42:06;;;;;;;1.80;1.50;;;13.70;64.10;;;;;;5044551;28;20279;-59
2022/11/19 04:44:31;;;;;;;2.80;1.30;;;13.70;64.20;;;;;;5032501;28;20200;-58
2022/11/19 04:46:58;;;;;;;1.87;1.50;;;13.80;64.10;;;;;;5029326;28;20192;-59
2022/11/19 04:49:24;;;;;;;1.40;1.30;;;13.80;63.90;;;;;;5030819;28;20902;-59
2022/11/19 04:51:49;;;;;;;1.70;1.60;;;13.80;64.30;;;;;;5023497;28;20437;-58
2022/11/19 04:54:15;;;;;;;2.37;1.80;;;13.80;64.60;;;;;;5026736;28;20440;-58
2022/11/19 04:56:41;;;;;;;1.57;1.47;;;13.80;64.50;;;;;;5029331;28;20573;-58
2022/11/19 04:59:06;;;;;;;2.03;1.63;;;13.80;64.10;;;;;;5032681;28;20331;-58
2022/11/19 05:01:32;;;;;;;1.80;1.70;;;13.80;63.70;;;;;;5030387;28;20192;-59
2022/11/19 05:03:57;;;;;;;1.70;1.60;;;13.90;63.60;;;;;;5031866;28;20197;-59
2022/11/19 05:06:23;;;;;;;2.77;1.97;;;13.90;63.40;;;;;;5030374;28;20777;-58
2022/11/19 05:08:48;;;;;;;1.50;1.40;;;13.90;63.50;;;;;;5045765;28;20214;-58
2022/11/19 05:11:14;;;;;;;1.90;1.67;;;13.90;63.50;;;;;;5030743;28;20275;-58
2022/11/19 05:13:40;;;;;;;2.13;2.00;;;13.90;63.60;;;;;;5032834;28;20559;-58
2022/11/19 05:16:05;;;;;;;1.90;1.80;;;13.90;63.80;;;;;;5028648;28;20221;-59
2022/11/19 05:18:31;;;;;;;3.30;1.73;;;13.90;63.90;;;;;;5033101;28;20221;-59
2022/11/19 05:20:57;;;;;;;1.90;1.70;;;13.90;64.10;;;;;;5031106;28;20436;-58
2022/11/19 05:23:25;;;;;;;2.17;1.90;;;13.90;64.30;;;;;;5035693;28;20648;-58
2022/11/19 05:25:51;;;;;;;3.87;2.00;;;13.90;64.30;;;;;;5026516;28;20190;-59
2022/11/19 05:28:17;;;;;;;3.17;2.43;;;13.90;64.50;;;;;;5031118;28;20531;-58
2022/11/19 05:30:43;;;;;;;2.60;1.90;;;13.90;64.60;;;;;;5030455;28;21066;-58
2022/11/19 05:33:08;;;;;;;2.80;2.00;;;13.90;64.40;;;;;;5029140;28;20204;-58
2022/11/19 05:35:34;;;;;;;3.00;2.40;;;13.90;64.40;;;;;;5030133;28;20232;-58
2022/11/19 05:38:00;;;;;;;2.37;2.17;;;13.90;64.40;;;;;;5031920;28;20581;-58
2022/11/19 05:40:25;;;;;;;3.60;2.17;;;13.90;64.50;;;;;;5031353;28;20683;-59
2022/11/19 05:42:51;;;;;;;4.00;2.20;;;13.90;64.70;;;;;;5029742;28;20193;-58
2022/11/19 05:45:17;;;;;;;2.63;2.20;;;13.90;64.90;;;;;;5030218;28;20220;-59
2022/11/19 05:47:42;;;;;;;2.93;2.20;;;13.80;64.90;;;;;;5032279;28;20240;-58
2022/11/19 05:50:08;;;;;;;2.93;2.70;;;13.80;64.80;;;;;;5027987;28;20196;-59
2022/11/19 05:52:34;;;;;;;3.33;2.30;;;13.90;64.80;;;;;;5031188;28;20692;-58
2022/11/19 05:55:00;;;;;;;3.20;2.60;;;13.90;64.80;;;;;;5030247;28;20464;-59
2022/11/19 05:57:26;;;;;;;3.07;2.27;;;13.90;64.80;;;;;;5025673;28;20247;-59
2022/11/19 05:59:52;;;;;;;2.83;2.23;;;13.80;64.70;;;;;;5030037;28;21014;-58
2022/11/19 06:02:17;;;;;;;3.90;2.23;;;13.90;64.80;;;;;;5020025;28;20190;-58
2022/11/19 06:04:44;;;;;;;2.80;2.00;;;13.80;65.60;;;;;;5031541;28;20182;-58
2022/11/19 06:07:09;;;;;;;2.20;2.00;;;13.80;65.20;;;;;;5025759;28;20653;-58
2022/11/19 06:09:35;;;;;;;4.83;2.10;;;13.80;65.20;;;;;;5024673;28;20444;-58
2022/11/19 06:12:00;;;;;;;2.30;2.10;;;13.90;65.20;;;;;;5027928;28;20280;-59
2022/11/19 06:14:26;;;;;;;7.50;5.03;;;13.80;65.30;;;;;;5025144;28;20185;-58
2022/11/19 06:16:57;;;;;;;7.20;5.07;;;13.70;65.10;;;;;;5028349;28;20236;-57
2022/11/19 06:19:24;;;;;;;8.53;4.53;;;13.80;65.40;;;;;;5028912;28;20443;-58
2022/11/19 06:21:50;;;;;;;7.53;4.43;;;13.90;66.90;;;;;;5037402;28;20560;-58
2022/11/19 06:24:15;;;;;;;8.10;4.33;;;14.10;67.40;;;;;;5032250;28;20866;-57
2022/11/19 06:26:42;;;;;;;5.63;3.37;;;14.20;66.90;;;;;;5030733;28;20436;-58
2022/11/19 06:29:08;;;;;;;5.97;3.10;;;14.40;66.80;;;;;;5021737;28;20200;-58
2022/11/19 06:31:33;;;;;;;3.67;2.77;;;14.60;66.80;;;;;;5020096;28;20448;-58
2022/11/19 06:33:59;;;;;;;4.43;2.90;;;14.70;65.70;;;;;;5018745;28;20436;-57
2022/11/19 06:36:25;;;;;;;3.63;3.10;;;14.80;65.30;;;;;;5020723;28;20193;-58
2022/11/19 06:38:51;;;;;;;6.23;3.10;;;14.90;64.40;;;;;;5024142;28;20460;-58
2022/11/19 06:41:17;;;;;;;5.20;3.83;;;14.90;63.20;;;;;;5022074;28;20275;-58
2022/11/19 06:43:43;;;;;;;5.73;3.37;;;15.00;62.30;;;;;;5023448;28;20475;-58
2022/11/19 06:46:10;;;;;;;3.40;2.37;;;15.00;62.20;;;;;;5038206;28;20553;-57
2022/11/19 06:48:36;;;;;;;3.10;2.80;;;15.10;62.10;;;;;;5027688;28;20197;-58
2022/11/19 06:51:02;;;;;;;3.27;2.97;;;15.10;61.20;;;;;;5031228;28;21023;-58
2022/11/19 06:53:28;;;;;;;4.13;2.93;;;15.20;60.60;;;;;;5036827;28;20670;-58
2022/11/19 06:56:01;;;;;;;4.23;3.80;;;15.20;60.30;;;;;;5022031;28;20444;-58
2022/11/19 06:58:28;;;;;;;4.40;2.87;;;15.20;60.10;;;;;;5026035;28;20231;-58
2022/11/19 07:00:54;;;;;;;2.70;2.50;;;15.20;60.00;;;;;;5024353;28;20510;-57
2022/11/19 07:03:20;;;;;;;2.77;2.33;;;15.20;60.10;;;;;;5028963;28;20528;-58
2022/11/19 07:05:47;;;;;;;3.73;3.40;;;15.20;60.50;;;;;;5025248;28;20440;-57
2022/11/19 07:08:13;;;;;;;3.83;3.10;;;15.30;60.40;;;;;;5028110;28;20444;-58
2022/11/19 07:10:39;;;;;;;4.53;2.80;;;15.30;60.00;;;;;;5025020;28;20444;-58
2022/11/19 07:13:04;;;;;;;3.93;2.87;;;15.30;60.00;;;;;;5030684;28;20534;-58
2022/11/19 07:15:30;;;;;;;3.30;3.00;;;15.30;60.10;;;;;;5027798;28;20193;-58
2022/11/19 07:17:55;;;;;;;3.67;2.67;;;15.30;59.80;;;;;;5028274;28;20221;-58
2022/11/19 07:20:21;;;;;;;3.70;3.37;;;15.30;59.60;;;;;;5021773;28;20219;-58
2022/11/19 07:22:46;;;;;;;3.53;3.10;;;15.20;59.40;;;;;;5027554;28;20318;-58
2022/11/19 07:25:12;;;;;;;6.10;4.60;;;15.30;59.50;;;;;;5028029;28;20271;-57
2022/11/19 07:27:38;;;;;;;5.63;5.13;;;15.20;59.40;;;;;;5028359;28;20280;-59
2022/11/19 07:30:06;;;;;;;5.20;4.73;;;15.20;59.40;;;;;;5027496;28;20592;-58
2022/11/19 07:32:32;;;;;;;4.93;4.43;;;15.20;59.20;;;;;;5019764;28;20442;-58
2022/11/19 07:34:58;;;;;;;5.40;3.50;;;15.10;59.10;;;;;;5024860;28;20454;-60
2022/11/19 07:37:24;;;;;;;4.20;3.90;;;15.00;59.20;;;;;;5028418;28;20561;-59
2022/11/19 07:39:49;;;;;;;4.20;3.80;;;14.90;59.30;;;;;;5026402;28;20503;-59
2022/11/19 07:44:59;;;;;;;9.53;8.73;;;14.70;59.80;;;;;;5026859;28;20208;-59
2022/11/19 07:47:24;;;;;;;7.23;6.50;;;14.60;60.20;;;;;;5024912;28;20439;-59
2022/11/19 07:49:50;;;;;;;5.17;4.77;;;14.50;60.50;;;;;;5020992;28;20220;-59
2022/11/19 07:52:16;;;;;;;3.47;3.20;;;14.40;60.70;;;;;;5030208;28;20238;-58
2022/11/19 07:54:49;;;;;;;3.40;3.00;;;14.40;61.10;;;;;;5035543;28;20243;-58
2022/11/19 07:57:26;;;;;;;3.27;2.53;;;14.30;61.60;;;;;;5028982;28;20605;-58
2022/11/19 07:59:52;;;;;;;2.17;1.97;;;14.30;62.00;;;;;;5025376;28;20779;-58
2022/11/19 08:02:17;;;;;;;3.30;3.00;;;14.30;62.00;;;;;;5021234;28;20442;-59
2022/11/19 08:04:43;;;;;;;2.83;2.63;;;14.30;61.90;;;;;;5025226;28;20578;-58
2022/11/19 08:07:09;;;;;;;3.13;2.67;;;14.30;61.90;;;;;;5025471;28;20247;-58
2022/11/19 08:09:34;;;;;;;4.10;3.80;;;14.30;62.10;;;;;;5024712;28;20189;-58
2022/11/19 08:12:00;;;;;;;4.63;4.00;;;14.30;63.10;;;;;;5026830;28;20193;-58
2022/11/19 08:14:25;;;;;;;4.10;3.70;;;14.30;62.60;;;;;;5024349;28;20838;-59
2022/11/19 08:19:35;;;;;;;3.60;2.80;;;14.40;62.80;;;;;;5021204;28;20259;-59
2022/11/19 08:22:01;;;;;;;3.53;3.13;;;14.40;62.90;;;;;;5027641;28;20464;-59
2022/11/19 08:24:26;;;;;;;3.47;3.17;;;14.40;63.10;;;;;;5027684;28;20193;-59
2022/11/19 08:26:52;;;;;;;3.70;3.40;;;14.40;63.20;;;;;;5037687;28;20565;-59
2022/11/19 08:29:20;;;;;;;4.03;3.73;;;14.40;63.40;;;;;;5032770;28;20612;-59
2022/11/19 08:31:48;;;;;;;4.30;3.90;;;14.40;63.20;;;;;;5031070;28;20265;-59
2022/11/19 08:34:15;;;;;;;3.23;2.70;;;14.40;63.00;;;;;;5029072;28;20875;-59
2022/11/19 08:36:41;;;;;;;3.50;2.97;;;14.40;63.40;;;;;;5037037;28;20533;-59
2022/11/19 08:39:06;;;;;;;3.90;3.00;;;14.30;63.20;;;;;;5050237;28;20510;-59
2022/11/19 08:44:16;;;;;;;2.97;2.40;;;14.40;63.10;;;;;;5034708;28;20211;-60
2022/11/19 08:46:42;;;;;;;2.63;2.43;;;14.30;62.70;;;;;;5028358;28;20853;-59
2022/11/19 08:49:08;;;;;;;5.43;3.33;;;14.40;62.70;;;;;;5033614;28;20194;-59
2022/11/19 08:51:34;;;;;;;4.37;3.40;;;14.40;62.50;;;;;;5028987;28;20796;-59
2022/11/19 08:54:00;;;;;;;2.90;2.70;;;14.50;62.60;;;;;;5030236;28;20435;-59
2022/11/19 08:56:27;;;;;;;3.20;2.87;;;14.40;62.90;;;;;;5028806;28;20189;-59
2022/11/19 08:58:53;;;;;;;3.10;2.70;;;14.40;62.90;;;;;;5028928;28;20237;-59
2022/11/19 09:01:19;;;;;;;3.07;2.80;;;14.40;62.40;;;;;;5044202;28;20451;-58
2022/11/19 09:03:45;;;;;;;4.00;2.70;;;14.50;62.10;;;;;;5037007;28;20455;-59
2022/11/19 09:06:11;;;;;;;3.00;2.70;;;14.50;62.00;;;;;;5034223;28;20802;-59
2022/11/19 09:08:38;;;;;;;3.73;2.60;;;14.50;62.10;;;;;;5040444;28;20445;-59
2022/11/19 09:11:13;;;;;;;6.27;3.57;;;14.50;62.10;;;;;;5053996;28;20419;-59
2022/11/19 09:13:39;;;;;;;2.90;2.70;;;14.60;61.90;;;;;;5036474;28;20447;-59
2022/11/19 09:16:05;;;;;;;2.63;2.43;;;14.70;61.80;;;;;;5033161;28;20851;-59
2022/11/19 09:18:31;;;;;;;3.77;2.57;;;14.70;61.70;;;;;;5031939;28;20888;-59
2022/11/19 09:20:57;;;;;;;2.80;2.60;;;14.70;61.30;;;;;;5032895;28;21057;-59
2022/11/19 09:23:25;;;;;;;5.17;3.77;;;14.60;61.80;;;;;;5032057;28;20832;-59
2022/11/19 09:26:16;;;;;;;3.63;3.00;;;14.50;62.10;;;;;;5030372;28;20527;-59
2022/11/19 09:28:43;;;;;;;3.63;3.30;;;14.50;62.10;;;;;;5039022;28;20531;-59
2022/11/19 09:31:19;;;;;;;4.17;3.37;;;14.50;61.50;;;;;;5033650;28;20919;-60
2022/11/19 09:33:49;;;;;;;4.30;3.43;;;14.50;61.50;;;;;;5030584;28;20450;-59
2022/11/19 09:36:17;;;;;;;4.93;4.33;;;14.50;61.60;;;;;;5028428;28;20534;-59
2022/11/19 09:38:43;;;;;;;4.30;3.00;;;14.30;61.40;;;;;;5031164;28;20483;-59
2022/11/19 09:41:33;;;;;;;3.33;2.63;;;14.30;61.30;;;;;;5029244;28;20491;-59
2022/11/19 09:44:10;;;;;;;3.43;2.27;;;14.40;61.80;;;;;;5028830;28;20547;-60
2022/11/19 09:46:57;;;;;;;1.70;1.50;;;14.50;61.70;;;;;;5032640;28;20546;-60
2022/11/19 09:49:42;;;;;;;2.10;1.37;;;14.60;61.40;;;;;;5029295;28;20500;-59
2022/11/19 09:52:13;;;;;;;1.60;1.50;;;14.70;61.40;;;;;;5032267;28;20442;-59
2022/11/19 09:54:47;;;;;;;1.57;1.30;;;14.70;60.80;;;;;;5028674;28;20901;-60
2022/11/19 09:57:20;;;;;;;2.43;1.63;;;14.60;60.40;;;;;;5032210;28;20844;-59
2022/11/19 09:59:48;;;;;;;1.83;1.73;;;14.50;60.60;;;;;;5030997;28;20439;-60
2022/11/19 10:02:20;;;;;;;1.70;1.60;;;14.50;61.10;;;;;;5025661;28;20541;-59
2022/11/19 10:04:48;;;;;;;3.07;1.27;;;14.40;61.20;;;;;;5019672;28;20463;-59
2022/11/19 10:07:35;;;;;;;1.43;1.33;;;14.40;61.40;;;;;;5024172;28;20439;-59
2022/11/19 10:10:03;;;;;;;1.63;1.53;;;14.60;61.50;;;;;;5025165;28;20476;-59
2022/11/19 10:12:38;;;;;;;1.93;1.60;;;14.70;61.20;;;;;;5025668;28;20455;-60
2022/11/19 10:15:03;;;;;;;1.70;1.60;;;14.70;60.90;;;;;;5027730;28;20446;-60
2022/11/19 10:17:41;;;;;;;1.70;1.57;;;14.80;60.60;;;;;;5027181;28;20506;-59
2022/11/19 10:20:37;;;;;;;1.47;1.37;;;14.70;60.10;;;;;;5031521;28;20192;-60
2022/11/19 10:23:39;;;;;;;1.90;1.60;;;14.60;59.90;;;;;;5021367;28;20472;-61
2022/11/19 10:26:11;;;;;;;1.47;1.37;;;14.70;59.90;;;;;;5012906;28;20466;-60
2022/11/19 10:28:39;;;;;;;4.17;3.77;;;14.70;59.60;;;;;;5016638;28;20448;-60
2022/11/19 10:31:19;;;;;;;1.90;1.73;;;14.70;59.80;;;;;;5022930;28;21153;-60
2022/11/19 10:34:06;;;;;;;1.90;1.50;;;14.60;59.80;;;;;;5026544;28;20448;-60
2022/11/19 10:36:40;;;;;;;3.67;2.37;;;14.60;59.80;;;;;;5022854;28;20443;-60
2022/11/19 10:39:11;;;;;;;3.10;2.80;;;14.60;60.00;;;;;;5023680;28;21094;-60
2022/11/19 10:41:47;;;;;;;2.50;1.87;;;14.80;59.90;;;;;;5020527;28;20456;-60
2022/11/19 10:44:49;;;;;;;2.40;2.17;;;14.80;59.80;;;;;;5026531;28;20501;-60
2022/11/19 10:47:47;;;;;;;3.63;2.80;;;14.70;59.40;;;;;;5027323;28;20935;-60
2022/11/19 10:50:21;;;;;;;2.23;2.00;;;14.60;59.70;;;;;;5007759;28;20501;-60
2022/11/19 10:53:01;;;;;;;1.33;1.23;;;14.60;59.50;;;;;;5022690;28;24540;-60
2022/11/19 10:55:36;;;;;;;8.10;1.90;;;14.20;59.40;;;;;;5027645;28;20531;-60
2022/11/19 10:58:15;;;;;;;1.83;1.33;;;14.40;59.80;;;;;;5027591;28;20489;-60
2022/11/19 11:00:42;;;;;;;2.50;1.50;;;14.20;59.20;;;;;;5028615;28;20451;-60
2022/11/19 11:03:21;;;;;;;1.43;1.20;;;14.00;59.30;;;;;;5022775;28;20961;-60
2022/11/19 11:05:54;;;;;;;1.73;1.37;;;14.20;59.40;;;;;;5027343;28;20855;-60
2022/11/19 11:08:20;;;;;;;2.40;1.30;;;14.00;58.80;;;;;;5030973;28;20463;-60
2022/11/19 11:10:45;;;;;;;2.70;2.50;;;14.00;59.50;;;;;;5027263;28;20952;-61
2022/11/19 11:16:26;;;;;;;1.93;1.53;;;14.20;59.70;;;;;;5034239;28;20228;-60
2022/11/19 11:18:55;;;;;;;1.37;1.17;;;13.90;59.40;;;;;;5028541;28;20586;-61
2022/11/19 11:21:31;;;;;;;4.10;1.50;;;13.80;60.00;;;;;;5025554;28;20598;-60
2022/11/19 11:24:01;;;;;;;4.33;1.40;;;13.80;59.80;;;;;;5025448;28;20962;-60
2022/11/19 11:26:28;;;;;;;1.37;1.27;;;13.80;59.50;;;;;;5026572;28;20908;-60
2022/11/19 11:29:00;;;;;;;8.30;5.67;;;13.70;59.30;;;;;;5022924;28;20445;-60
2022/11/19 11:31:30;;;;;;;2.07;1.60;;;13.60;59.70;;;;;;5032501;28;20447;-59
2022/11/19 11:33:57;;;;;;;2.70;1.53;;;13.50;59.80;;;;;;5027291;28;20946;-60
2022/11/19 11:36:26;;;;;;;5.23;2.07;;;13.70;60.00;;;;;;5035452;28;20443;-60
2022/11/19 11:38:58;;;;;;;3.70;1.70;;;13.80;59.70;;;;;;5028767;28;20490;-60
2022/11/19 11:41:41;;;;;;;2.43;1.60;;;13.80;60.10;;;;;;5028601;28;20440;-60
2022/11/19 11:44:18;;;;;;;2.93;1.70;;;13.80;60.30;;;;;;5028329;28;20525;-60
2022/11/19 11:46:51;;;;;;;1.90;1.47;;;13.80;60.40;;;;;;5024437;28;20961;-60
2022/11/19 11:49:31;;;;;;;2.63;2.53;;;13.90;60.40;;;;;;5028984;28;20451;-59
2022/11/19 11:52:15;;;;;;;3.07;2.30;;;14.00;60.60;;;;;;5026168;28;20522;-59
2022/11/19 11:54:55;;;;;;;3.30;2.30;;;13.90;59.90;;;;;;5029227;28;20521;-60
2022/11/19 11:57:22;;;;;;;3.60;2.77;;;14.00;60.00;;;;;;5025119;28;20832;-60
2022/11/19 11:59:48;;;;;;;10.80;7.20;;;14.10;59.90;;;;;;5040425;28;20439;-60
2022/11/19 12:02:31;;;;;;;3.83;3.40;;;14.20;59.90;;;;;;5040050;28;20493;-60
2022/11/19 12:05:14;;;;;;;11.90;7.57;;;14.30;59.80;;;;;;5033842;28;20197;-59
2022/11/19 12:08:03;;;;;;;2.50;2.30;;;14.40;59.70;;;;;;5027669;28;20870;-60
2022/11/19 12:10:55;;;;;;;3.20;2.00;;;14.40;59.30;;;;;;5026487;28;20452;-60
2022/11/19 12:13:45;;;;;;;2.97;2.67;;;14.50;59.60;;;;;;5028148;28;20772;-59
2022/11/19 12:16:37;;;;;;;4.60;3.70;;;14.60;59.70;;;;;;5022929;28;20439;-59
2022/11/19 12:19:12;;;;;;;3.20;2.40;;;14.60;59.70;;;;;;5022007;28;20456;-59
2022/11/19 12:21:59;;;;;;;1.77;1.60;;;14.70;59.90;;;;;;5025699;28;20483;-59
2022/11/19 12:24:33;;;;;;;1.63;1.50;;;14.60;59.80;;;;;;5025414;28;20447;-59
2022/11/19 12:27:02;;;;;;;2.60;1.70;;;13.90;60.30;;;;;;5029603;28;20447;-60
2022/11/19 12:29:44;;;;;;;1.67;1.50;;;13.40;62.70;;;;;;5025773;28;20532;-60
2022/11/19 12:32:42;;;;;;;1.70;1.60;;;13.40;63.80;;;;;;5023983;28;20448;-59
2022/11/19 12:35:18;;;;;;;6.10;1.80;;;13.40;64.20;;;;;;5026954;28;20513;-60
2022/11/19 12:38:18;;;;;;;3.03;1.90;;;13.30;65.00;;;;;;5031528;28;20541;-60
2022/11/19 12:41:30;;;;;;;1.97;1.87;;;13.40;64.60;;;;;;5033797;28;20546;-60
2022/11/19 12:44:01;;;;;;;13.13;9.20;;;13.50;64.60;;;;;;5024664;28;20462;-60
2022/11/19 12:46:50;;;;;;;6.47;4.90;;;13.60;64.20;;;;;;5029938;28;20813;-60
2022/11/19 12:50:04;;;;;;;3.33;2.67;;;13.50;64.00;;;;;;5027092;28;20459;-60
2022/11/19 12:52:46;;;;;;;3.13;2.80;;;13.60;63.90;;;;;;5015252;28;20943;-60
2022/11/19 12:55:25;;;;;;;25.20;13.33;;;13.80;63.80;;;;;;5035342;28;21480;-59
2022/11/19 12:57:57;;;;;;;26.40;14.87;;;13.90;63.50;;;;;;5033815;28;20502;-60
2022/11/19 13:00:25;;;;;;;9.20;4.30;;;14.00;64.00;;;;;;5042032;28;20506;-60
2022/11/19 13:03:07;;;;;;;38.37;21.67;;;14.00;62.90;;;;;;5034127;28;20502;-60
2022/11/19 13:05:54;;;;;;;25.07;15.20;;;14.00;62.60;;;;;;5036864;28;20980;-60
2022/11/19 13:08:29;;;;;;;17.70;10.70;;;14.00;62.70;;;;;;5026929;28;20454;-60
2022/11/19 13:11:35;;;;;;;25.20;16.07;;;14.10;62.90;;;;;;5040729;28;21153;-59
2022/11/19 13:14:04;;;;;;;8.70;6.13;;;14.20;62.90;;;;;;5023570;28;20598;-60
2022/11/19 13:16:33;;;;;;;13.90;6.70;;;14.30;62.90;;;;;;5031753;28;20526;-60
2022/11/19 13:19:18;;;;;;;15.27;9.00;;;14.40;62.80;;;;;;5029786;28;20493;-60
2022/11/19 13:21:55;;;;;;;10.50;7.13;;;14.40;62.60;;;;;;5028457;28;20692;-60
2022/11/19 13:24:24;;;;;;;9.10;5.30;;;14.30;62.40;;;;;;5029135;28;20481;-60
2022/11/19 13:26:50;;;;;;;14.80;9.37;;;14.30;62.20;;;;;;5032788;28;20471;-60
2022/11/19 13:29:21;;;;;;;23.40;13.60;;;14.40;62.10;;;;;;5030178;28;20505;-60
2022/11/19 13:32:11;;;;;;;16.47;11.07;;;14.40;62.20;;;;;;5029937;28;20990;-60